Time;durP1;ratioP1;P1;durP2;ratioP2;P2;SDS_P1;SDS_P2;PMS_P1;PMS_P2;Temp;Humidity;BMP_temperature;BMP_pressure;BME280_temperature;BME280_humidity;BME280_pressure;Samples;Min_cycle;Max_cycle;Signal;HPM_P1;HPM_P2
2021/05/13 00:01:08;;;;;;;4.07;3.73;;;25.30;59.70;;;;;;4955178;29;20491;-89
2021/05/13 00:03:36;;;;;;;4.10;3.80;;;25.30;59.70;;;;;;4957063;28;20459;-89
2021/05/13 00:06:03;;;;;;;4.30;3.87;;;25.30;59.70;;;;;;4959984;29;20515;-89
2021/05/13 00:08:30;;;;;;;3.80;3.50;;;25.20;59.60;;;;;;4959557;29;20459;-89
2021/05/13 00:11:04;;;;;;;4.33;3.93;;;25.20;59.60;;;;;;4959393;29;20457;-90
2021/05/13 00:13:32;;;;;;;3.43;3.20;;;25.20;60.30;;;;;;4959518;29;20447;-90
2021/05/13 00:15:58;;;;;;;4.03;3.73;;;25.20;59.60;;;;;;4959239;29;20527;-89
2021/05/13 00:18:25;;;;;;;3.57;3.30;;;25.20;59.60;;;;;;4958915;29;20996;-90
2021/05/13 00:20:52;;;;;;;4.17;3.77;;;25.20;59.60;;;;;;4959050;29;20538;-90
2021/05/13 00:23:19;;;;;;;4.13;3.73;;;25.20;59.60;;;;;;4958737;29;20453;-90
2021/05/13 00:25:47;;;;;;;4.20;3.90;;;25.20;59.60;;;;;;4959163;29;20459;-90
2021/05/13 00:28:15;;;;;;;4.00;3.70;;;25.20;59.60;;;;;;4958759;29;20949;-89
2021/05/13 00:30:41;;;;;;;3.97;3.67;;;25.20;59.60;;;;;;4958696;29;20453;-89
2021/05/13 00:33:07;;;;;;;4.70;3.83;;;25.20;59.60;;;;;;4958900;29;20579;-89
2021/05/13 00:35:34;;;;;;;4.23;3.90;;;25.30;59.70;;;;;;4958701;29;20451;-89
2021/05/13 00:38:00;;;;;;;3.60;3.30;;;25.20;59.60;;;;;;4958425;29;20486;-90
2021/05/13 00:40:27;;;;;;;4.00;3.70;;;25.20;59.60;;;;;;4958498;29;20496;-89
2021/05/13 00:42:54;;;;;;;3.80;3.50;;;25.20;59.60;;;;;;4958469;29;20540;-90
2021/05/13 00:45:21;;;;;;;4.00;3.70;;;25.30;59.70;;;;;;4958445;29;20456;-89
2021/05/13 00:48:01;;;;;;;3.53;3.30;;;25.20;59.60;;;;;;4958274;29;20512;-90
2021/05/13 00:50:29;;;;;;;3.50;3.30;;;25.20;59.60;;;;;;4958615;29;20450;-90
2021/05/13 00:52:56;;;;;;;3.90;3.50;;;25.20;59.60;;;;;;4958126;29;20463;-90
2021/05/13 00:55:23;;;;;;;3.80;3.50;;;25.20;59.60;;;;;;4958387;29;20551;-90
2021/05/13 00:57:52;;;;;;;4.17;3.80;;;25.20;59.60;;;;;;4958175;29;20810;-90
2021/05/13 01:00:33;;;;;;;3.60;3.40;;;25.20;59.50;;;;;;4958321;29;20500;-90
2021/05/13 01:03:01;;;;;;;3.93;3.17;;;25.20;59.50;;;;;;4958379;29;20446;-89
2021/05/13 01:05:29;;;;;;;3.77;3.47;;;25.20;59.50;;;;;;4958436;29;20456;-90
2021/05/13 01:07:59;;;;;;;4.10;3.80;;;25.20;59.50;;;;;;4958029;29;20852;-89
2021/05/13 01:10:26;;;;;;;3.70;3.50;;;25.20;59.50;;;;;;4958157;29;20482;-89
2021/05/13 01:12:53;;;;;;;3.80;3.60;;;25.20;59.50;;;;;;4958273;29;20786;-90
2021/05/13 01:15:24;;;;;;;4.23;3.93;;;25.20;59.50;;;;;;4957890;28;20455;-90
2021/05/13 01:18:02;;;;;;;4.70;3.90;;;25.20;59.50;;;;;;4958074;29;20471;-89
2021/05/13 01:20:30;;;;;;;4.13;3.83;;;25.20;59.50;;;;;;4957997;29;20477;-90
2021/05/13 01:22:59;;;;;;;4.17;3.87;;;25.20;59.50;;;;;;4958089;29;20457;-89
2021/05/13 01:25:26;;;;;;;3.87;3.67;;;25.20;59.50;;;;;;4957872;29;20474;-89
2021/05/13 01:27:57;;;;;;;3.90;3.60;;;25.20;59.50;;;;;;4957643;29;20450;-90
2021/05/13 01:30:24;;;;;;;3.87;3.60;;;25.30;59.50;;;;;;4957956;29;20433;-90
2021/05/13 01:32:50;;;;;;;4.27;3.97;;;25.20;59.50;;;;;;4957922;29;20444;-89
2021/05/13 01:35:17;;;;;;;7.50;3.80;;;25.20;59.50;;;;;;4957401;29;20456;-90
2021/05/13 01:37:43;;;;;;;4.40;4.10;;;25.10;59.50;;;;;;4957308;29;20579;-88
2021/05/13 01:40:12;;;;;;;3.87;3.57;;;25.10;59.50;;;;;;4957482;29;20493;-89
2021/05/13 01:42:38;;;;;;;4.97;4.00;;;25.10;59.40;;;;;;4957353;29;20945;-89
2021/05/13 01:45:05;;;;;;;4.13;3.83;;;25.10;59.50;;;;;;4957236;29;20480;-90
2021/05/13 01:47:35;;;;;;;3.90;3.60;;;25.10;59.50;;;;;;4957299;29;20469;-90
2021/05/13 01:50:03;;;;;;;3.40;3.20;;;25.10;59.50;;;;;;4957334;29;20449;-89
2021/05/13 01:52:29;;;;;;;3.67;3.47;;;25.20;59.50;;;;;;4957268;29;20449;-89
2021/05/13 01:54:55;;;;;;;4.23;3.83;;;25.10;59.40;;;;;;4957101;29;20928;-90
2021/05/13 01:57:23;;;;;;;4.80;4.20;;;25.10;59.40;;;;;;4957072;29;20445;-90
2021/05/13 01:59:49;;;;;;;2.90;2.70;;;25.10;59.40;;;;;;4957051;29;20448;-90
2021/05/13 02:02:15;;;;;;;3.37;3.17;;;25.10;59.40;;;;;;4956998;29;20449;-90
2021/05/13 02:04:42;;;;;;;3.80;3.50;;;25.10;59.40;;;;;;4956944;29;20941;-90
2021/05/13 02:07:08;;;;;;;3.47;3.27;;;25.10;60.00;;;;;;4957162;29;20488;-90
2021/05/13 02:09:34;;;;;;;3.37;3.17;;;25.10;59.40;;;;;;4957254;29;20548;-90
2021/05/13 02:12:03;;;;;;;2.93;2.73;;;25.10;59.40;;;;;;4957419;29;20971;-90
2021/05/13 02:14:30;;;;;;;3.13;2.90;;;25.10;59.40;;;;;;4956972;29;20448;-90
2021/05/13 02:16:57;;;;;;;3.03;2.83;;;25.10;59.40;;;;;;4956980;29;20471;-90
2021/05/13 02:19:23;;;;;;;3.30;3.10;;;25.10;59.40;;;;;;4957057;29;20853;-89
2021/05/13 02:21:49;;;;;;;3.47;3.27;;;25.10;59.40;;;;;;4956623;29;20499;-90
2021/05/13 02:24:15;;;;;;;3.70;3.47;;;25.10;59.40;;;;;;4956937;29;20452;-90
2021/05/13 02:26:42;;;;;;;3.50;3.30;;;25.10;59.40;;;;;;4955877;28;20817;-90
2021/05/13 02:29:08;;;;;;;3.83;3.53;;;25.10;59.40;;;;;;4956567;29;20936;-90
2021/05/13 02:31:35;;;;;;;3.57;3.33;;;25.10;59.40;;;;;;4956754;29;20800;-90
2021/05/13 02:34:02;;;;;;;3.93;3.60;;;25.10;59.30;;;;;;4956479;29;20511;-90
2021/05/13 02:36:28;;;;;;;3.80;3.50;;;25.10;59.30;;;;;;4956439;29;20480;-89
2021/05/13 02:38:54;;;;;;;3.63;3.33;;;25.10;59.30;;;;;;4956513;29;20438;-90
2021/05/13 02:41:21;;;;;;;4.20;3.90;;;25.10;59.30;;;;;;4956164;29;20497;-90
2021/05/13 02:43:47;;;;;;;3.20;3.00;;;25.10;59.30;;;;;;4956318;29;20455;-90
2021/05/13 02:46:13;;;;;;;3.00;2.80;;;25.10;59.30;;;;;;4956526;29;20487;-89
2021/05/13 02:48:42;;;;;;;3.47;3.27;;;25.10;59.20;;;;;;4956254;29;20476;-90
2021/05/13 02:51:08;;;;;;;3.50;3.30;;;25.00;59.10;;;;;;4957010;29;20796;-90
2021/05/13 02:53:35;;;;;;;3.73;3.53;;;25.20;59.20;;;;;;4956044;29;20456;-90
2021/05/13 02:56:03;;;;;;;3.00;2.80;;;25.00;59.10;;;;;;4956333;29;20446;-90
2021/05/13 02:58:29;;;;;;;2.87;2.67;;;25.00;59.10;;;;;;4956541;29;20460;-90
2021/05/13 03:01:06;;;;;;;3.00;2.80;;;25.00;59.10;;;;;;4955936;29;20500;-90
2021/05/13 03:03:33;;;;;;;2.90;2.80;;;25.00;59.10;;;;;;4956211;29;20534;-90
2021/05/13 03:06:00;;;;;;;3.63;3.33;;;25.20;59.20;;;;;;4956196;29;20453;-90
2021/05/13 03:08:26;;;;;;;2.80;2.60;;;25.00;59.10;;;;;;4956142;29;20492;-90
2021/05/13 03:10:52;;;;;;;3.73;3.43;;;25.00;59.10;;;;;;4956126;29;20478;-90
2021/05/13 03:13:22;;;;;;;2.93;2.73;;;25.10;59.10;;;;;;4956069;29;20452;-90
2021/05/13 03:15:49;;;;;;;3.90;3.20;;;25.20;59.10;;;;;;4956982;29;20546;-90
2021/05/13 03:18:15;;;;;;;3.10;2.90;;;25.00;59.00;;;;;;4956021;29;20489;-89
2021/05/13 03:20:46;;;;;;;3.43;3.20;;;25.00;59.00;;;;;;4956952;29;20488;-89
2021/05/13 03:23:13;;;;;;;3.60;3.40;;;25.00;58.90;;;;;;4956064;29;20453;-89
2021/05/13 03:25:42;;;;;;;3.43;3.23;;;25.00;58.90;;;;;;4956078;29;20472;-89
2021/05/13 03:28:09;;;;;;;3.27;3.07;;;25.00;58.90;;;;;;4955974;29;20453;-89
2021/05/13 03:30:40;;;;;;;3.07;2.87;;;25.00;58.90;;;;;;4955899;29;20556;-89
2021/05/13 03:33:07;;;;;;;3.47;3.17;;;25.00;58.90;;;;;;4955825;29;20443;-90
2021/05/13 03:35:34;;;;;;;3.40;3.20;;;25.00;58.90;;;;;;4961428;29;20448;-89
2021/05/13 03:38:01;;;;;;;3.67;3.43;;;25.00;58.80;;;;;;4965845;29;20972;-89
2021/05/13 03:40:30;;;;;;;3.10;2.90;;;25.00;58.80;;;;;;4969065;29;20480;-89
2021/05/13 03:42:56;;;;;;;3.73;3.53;;;25.00;58.80;;;;;;4967956;29;20491;-89
2021/05/13 03:45:23;;;;;;;3.23;3.00;;;25.00;58.80;;;;;;4957271;29;20807;-89
2021/05/13 03:47:49;;;;;;;3.83;3.47;;;25.00;58.80;;;;;;4957876;29;20635;-89
2021/05/13 03:50:16;;;;;;;3.13;2.93;;;25.00;58.80;;;;;;4955327;29;20463;-90
2021/05/13 03:52:43;;;;;;;3.30;3.10;;;25.00;58.80;;;;;;4955239;29;20943;-90
2021/05/13 03:55:10;;;;;;;3.57;3.37;;;25.00;58.80;;;;;;4955257;29;20448;-90
2021/05/13 03:57:38;;;;;;;3.50;3.30;;;25.00;58.80;;;;;;4955546;29;20447;-90
2021/05/13 04:00:08;;;;;;;3.30;3.10;;;25.00;58.80;;;;;;4955480;29;20461;-90
2021/05/13 04:02:34;;;;;;;3.73;3.53;;;25.00;58.80;;;;;;4955764;29;20453;-90
2021/05/13 04:05:01;;;;;;;5.13;3.70;;;25.00;58.80;;;;;;4955251;29;20460;-89
2021/05/13 04:07:29;;;;;;;3.70;3.40;;;25.00;58.80;;;;;;4955549;29;20499;-89
2021/05/13 04:09:56;;;;;;;3.53;3.30;;;25.00;58.70;;;;;;4955314;29;20457;-90
2021/05/13 04:12:23;;;;;;;3.23;3.03;;;25.00;58.70;;;;;;4955420;29;20460;-90
2021/05/13 04:14:51;;;;;;;3.70;3.50;;;25.00;58.70;;;;;;4955425;29;20804;-90
2021/05/13 04:17:17;;;;;;;3.33;3.13;;;25.00;58.70;;;;;;4955167;29;20530;-90
2021/05/13 04:19:44;;;;;;;3.63;3.43;;;25.00;58.70;;;;;;4955344;29;20539;-90
2021/05/13 04:22:11;;;;;;;3.53;3.30;;;25.00;58.70;;;;;;4955196;29;20916;-90
2021/05/13 04:24:38;;;;;;;4.10;3.80;;;24.90;58.60;;;;;;4955343;29;20455;-90
2021/05/13 04:27:05;;;;;;;3.60;3.40;;;24.90;58.60;;;;;;4955100;29;20836;-90
2021/05/13 04:29:31;;;;;;;4.23;3.93;;;24.90;58.60;;;;;;4955140;29;20463;-89
2021/05/13 04:31:58;;;;;;;3.73;3.43;;;25.00;58.60;;;;;;4955665;29;20456;-90
2021/05/13 04:34:25;;;;;;;3.40;3.20;;;25.00;58.60;;;;;;4954906;29;20449;-90
2021/05/13 04:36:51;;;;;;;3.70;3.50;;;24.90;58.60;;;;;;4954916;29;20566;-90
2021/05/13 04:39:18;;;;;;;3.60;3.40;;;24.90;58.60;;;;;;4954814;29;20993;-90
2021/05/13 04:41:44;;;;;;;3.17;2.97;;;24.90;58.50;;;;;;4955116;29;20492;-90
2021/05/13 04:44:10;;;;;;;3.23;3.03;;;24.90;58.50;;;;;;4955008;29;20526;-89
2021/05/13 04:46:37;;;;;;;4.07;3.80;;;24.90;58.50;;;;;;4955108;29;20477;-90
2021/05/13 04:49:16;;;;;;;3.00;2.80;;;24.90;58.60;;;;;;4955558;28;20467;-90
2021/05/13 04:51:46;;;;;;;3.43;3.23;;;24.90;58.60;;;;;;4958510;29;20443;-89
2021/05/13 04:54:15;;;;;;;3.00;2.80;;;24.90;58.60;;;;;;4958250;29;20452;-90
2021/05/13 04:56:41;;;;;;;3.80;3.60;;;24.90;58.60;;;;;;4958261;29;20489;-90
2021/05/13 04:59:08;;;;;;;4.27;3.97;;;24.90;58.60;;;;;;4958158;29;20455;-89
2021/05/13 05:01:34;;;;;;;3.40;3.10;;;24.90;58.60;;;;;;4958169;29;20496;-90
2021/05/13 05:04:00;;;;;;;3.60;3.30;;;24.90;58.60;;;;;;4958264;29;20544;-90
2021/05/13 05:06:28;;;;;;;3.50;3.30;;;24.90;58.60;;;;;;4958319;29;20464;-90
2021/05/13 05:08:55;;;;;;;4.23;3.93;;;24.90;58.60;;;;;;4958141;29;20940;-90
2021/05/13 05:11:21;;;;;;;2.87;2.63;;;24.90;58.60;;;;;;4958231;29;20441;-89
2021/05/13 05:13:48;;;;;;;3.60;3.40;;;24.90;58.60;;;;;;4957786;29;20460;-89
2021/05/13 05:16:14;;;;;;;3.50;3.30;;;24.90;58.60;;;;;;4958326;29;20452;-89
2021/05/13 05:18:41;;;;;;;3.67;3.47;;;24.90;58.60;;;;;;4958210;29;20454;-89
2021/05/13 05:21:07;;;;;;;4.20;3.90;;;24.90;58.70;;;;;;4958037;29;20496;-89
2021/05/13 05:23:35;;;;;;;3.50;3.30;;;24.90;58.70;;;;;;4958328;29;20812;-89
2021/05/13 05:26:01;;;;;;;3.43;3.23;;;24.90;58.70;;;;;;4957778;29;20952;-89
2021/05/13 05:28:28;;;;;;;3.70;3.50;;;24.80;58.60;;;;;;4958004;29;20452;-89
2021/05/13 05:30:54;;;;;;;3.77;3.57;;;24.80;58.70;;;;;;4958095;29;20929;-89
2021/05/13 05:33:22;;;;;;;3.20;3.00;;;24.80;58.70;;;;;;4958637;29;20453;-89
2021/05/13 05:35:49;;;;;;;3.93;3.70;;;24.80;58.70;;;;;;4957942;29;20531;-89
2021/05/13 05:38:16;;;;;;;4.00;3.70;;;24.80;58.70;;;;;;4957715;29;20460;-89
2021/05/13 05:40:43;;;;;;;4.23;4.03;;;24.80;58.70;;;;;;4958840;29;20488;-89
2021/05/13 05:43:09;;;;;;;3.97;3.60;;;24.80;58.70;;;;;;4957866;29;20464;-89
2021/05/13 05:45:36;;;;;;;4.20;3.90;;;24.80;58.80;;;;;;4957563;29;20456;-89
2021/05/13 05:48:04;;;;;;;3.83;3.63;;;24.80;58.80;;;;;;4957703;29;20464;-89
2021/05/13 05:50:32;;;;;;;4.37;4.13;;;24.80;58.80;;;;;;4957438;29;20561;-89
2021/05/13 05:52:58;;;;;;;4.30;3.97;;;24.80;58.80;;;;;;4957423;29;20479;-89
2021/05/13 05:55:25;;;;;;;3.33;3.13;;;24.80;58.90;;;;;;4957446;29;20455;-89
2021/05/13 05:57:52;;;;;;;3.90;3.60;;;24.80;58.90;;;;;;4957626;29;20931;-89
2021/05/13 06:00:19;;;;;;;4.30;4.00;;;24.80;58.90;;;;;;4956881;28;20487;-89
2021/05/13 06:02:46;;;;;;;4.00;3.80;;;24.80;58.90;;;;;;4956739;29;20456;-89
2021/05/13 06:05:13;;;;;;;3.90;3.70;;;24.80;58.90;;;;;;4958448;29;20444;-89
2021/05/13 06:07:39;;;;;;;4.20;3.90;;;24.80;58.90;;;;;;4957732;29;20456;-89
2021/05/13 06:10:07;;;;;;;4.20;3.90;;;24.80;58.90;;;;;;4957243;29;20453;-89
2021/05/13 06:12:34;;;;;;;3.90;3.70;;;24.80;59.00;;;;;;4957582;29;20485;-89
2021/05/13 06:15:02;;;;;;;4.80;4.50;;;24.80;59.00;;;;;;4957618;29;20450;-89
2021/05/13 06:17:28;;;;;;;3.60;3.40;;;24.80;59.00;;;;;;4957450;29;20494;-89
2021/05/13 06:20:00;;;;;;;4.27;3.97;;;24.80;59.00;;;;;;4957238;29;20453;-89
2021/05/13 06:22:26;;;;;;;4.90;4.60;;;24.80;59.00;;;;;;4957106;29;20791;-89
2021/05/13 06:24:53;;;;;;;4.43;4.13;;;24.80;59.00;;;;;;4957131;29;20943;-89
2021/05/13 06:27:20;;;;;;;4.67;4.37;;;24.80;59.00;;;;;;4956984;29;20456;-89
2021/05/13 06:29:47;;;;;;;4.97;4.60;;;24.80;59.10;;;;;;4956899;29;20464;-89
2021/05/13 06:32:14;;;;;;;3.90;3.70;;;24.80;59.10;;;;;;4957035;29;21002;-89
2021/05/13 06:34:41;;;;;;;4.20;4.00;;;24.80;59.10;;;;;;4956424;29;20480;-89
2021/05/13 06:37:07;;;;;;;4.07;3.77;;;24.80;59.10;;;;;;4956355;29;20575;-89
2021/05/13 06:39:33;;;;;;;4.17;3.97;;;24.80;59.10;;;;;;4956637;29;20445;-89
2021/05/13 06:42:01;;;;;;;3.83;3.63;;;24.80;59.20;;;;;;4956511;29;20495;-89
2021/05/13 06:44:27;;;;;;;3.60;3.40;;;24.80;59.20;;;;;;4956554;29;20447;-89
2021/05/13 06:46:54;;;;;;;4.93;4.53;;;24.80;59.20;;;;;;4956371;29;20475;-89
2021/05/13 06:49:21;;;;;;;5.37;5.00;;;24.80;59.20;;;;;;4956290;29;20455;-89
2021/05/13 06:51:47;;;;;;;4.70;4.37;;;24.80;59.30;;;;;;4956134;29;20456;-89
2021/05/13 06:54:14;;;;;;;3.80;3.60;;;24.80;59.30;;;;;;4956312;29;20595;-89
2021/05/13 06:56:41;;;;;;;4.57;4.27;;;24.80;59.20;;;;;;4956274;29;20452;-89
2021/05/13 06:59:07;;;;;;;4.87;4.60;;;24.80;59.30;;;;;;4956274;29;20452;-89
2021/05/13 07:01:35;;;;;;;4.07;3.80;;;24.80;59.90;;;;;;4955967;29;21056;-89
2021/05/13 07:04:04;;;;;;;4.83;4.43;;;24.80;59.30;;;;;;4956698;29;20457;-89
2021/05/13 07:06:32;;;;;;;4.30;4.00;;;24.80;59.30;;;;;;4956786;29;20459;-89
2021/05/13 07:08:58;;;;;;;4.40;4.10;;;24.80;59.30;;;;;;4956425;29;20543;-90
2021/05/13 07:11:25;;;;;;;4.83;4.53;;;24.80;59.30;;;;;;4956085;29;20460;-93
2021/05/13 07:13:52;;;;;;;4.00;3.70;;;24.80;59.20;;;;;;4955440;28;20457;-88
2021/05/13 07:16:18;;;;;;;16.30;14.97;;;24.80;59.20;;;;;;4955841;29;20447;-88
2021/05/13 07:18:44;;;;;;;19.43;17.67;;;24.80;59.20;;;;;;4955958;29;20449;-88
2021/05/13 07:21:12;;;;;;;20.27;18.37;;;24.70;58.90;;;;;;4955761;29;20574;-88
2021/05/13 07:23:39;;;;;;;21.43;19.57;;;24.60;59.10;;;;;;4955522;29;20454;-90
2021/05/13 07:26:06;;;;;;;21.60;19.70;;;24.50;59.80;;;;;;4955718;29;20456;-88
2021/05/13 07:28:32;;;;;;;18.40;16.80;;;24.50;60.10;;;;;;4955568;29;20449;-87
2021/05/13 07:30:58;;;;;;;18.50;17.00;;;24.40;60.00;;;;;;4955658;29;20447;-87
2021/05/13 07:33:26;;;;;;;19.00;17.30;;;24.40;59.60;;;;;;4955562;29;20946;-88
2021/05/13 07:35:52;;;;;;;19.00;17.20;;;24.40;59.30;;;;;;4955595;29;20828;-88
2021/05/13 07:38:19;;;;;;;20.47;18.77;;;24.40;59.50;;;;;;4955799;29;20936;-87
2021/05/13 07:40:46;;;;;;;18.13;16.53;;;24.40;60.00;;;;;;4955714;29;20491;-87
2021/05/13 07:43:12;;;;;;;20.40;18.37;;;24.30;59.60;;;;;;4955546;29;20446;-86
2021/05/13 07:45:42;;;;;;;18.80;17.10;;;24.30;60.00;;;;;;4955488;29;20456;-86
2021/05/13 07:48:09;;;;;;;18.43;16.73;;;24.30;60.80;;;;;;4955771;29;20886;-87
2021/05/13 07:50:35;;;;;;;19.77;17.77;;;24.40;60.80;;;;;;4955659;29;20507;-86
2021/05/13 07:53:02;;;;;;;19.00;17.17;;;24.30;60.80;;;;;;4955589;29;20495;-86
2021/05/13 07:55:28;;;;;;;17.87;16.13;;;24.30;60.80;;;;;;4955540;29;20480;-86
2021/05/13 07:57:56;;;;;;;18.63;16.87;;;24.40;61.00;;;;;;4955608;29;20545;-88
2021/05/13 08:00:22;;;;;;;19.87;17.90;;;24.30;61.40;;;;;;4955378;29;20449;-86
2021/05/13 08:02:50;;;;;;;18.27;16.77;;;24.30;61.20;;;;;;4955429;29;20454;-86
2021/05/13 08:05:16;;;;;;;18.67;17.00;;;24.30;62.30;;;;;;4955313;29;20447;-86
2021/05/13 08:07:42;;;;;;;18.57;16.67;;;24.30;60.90;;;;;;4955081;29;20498;-86
2021/05/13 08:10:10;;;;;;;16.00;14.30;;;24.30;59.90;;;;;;4955532;29;20452;-86
2021/05/13 08:12:36;;;;;;;14.87;13.63;;;24.30;60.40;;;;;;4955400;29;20458;-86
2021/05/13 08:15:06;;;;;;;16.23;14.70;;;24.40;60.20;;;;;;4955397;29;20443;-87
2021/05/13 08:17:32;;;;;;;18.50;14.73;;;24.40;59.80;;;;;;4955396;29;20521;-86
2021/05/13 08:19:58;;;;;;;13.37;12.07;;;24.40;59.20;;;;;;4955492;29;20910;-86
2021/05/13 08:22:25;;;;;;;13.93;12.70;;;24.40;58.80;;;;;;4955463;29;20493;-88
2021/05/13 08:24:51;;;;;;;11.83;10.63;;;24.40;58.30;;;;;;4958354;28;20489;-88
2021/05/13 08:27:17;;;;;;;10.63;9.60;;;24.40;58.10;;;;;;4961671;29;20469;-88
2021/05/13 08:29:44;;;;;;;11.53;10.33;;;24.50;58.40;;;;;;4960253;29;20451;-87
2021/05/13 08:32:11;;;;;;;10.90;10.07;;;24.50;58.30;;;;;;4946005;29;20453;-87
2021/05/13 08:34:37;;;;;;;11.43;9.57;;;24.50;57.90;;;;;;4961839;29;20454;-87
2021/05/13 08:37:04;;;;;;;12.53;11.40;;;24.60;57.90;;;;;;4961975;29;20483;-88
2021/05/13 08:39:30;;;;;;;11.17;10.00;;;24.60;58.00;;;;;;4960457;29;20545;-88
2021/05/13 08:41:59;;;;;;;11.13;10.27;;;24.60;58.30;;;;;;4959331;29;20494;-88
2021/05/13 08:44:28;;;;;;;9.30;8.40;;;24.70;58.80;;;;;;4958881;29;20484;-88
2021/05/13 08:46:56;;;;;;;9.43;8.43;;;24.80;58.70;;;;;;4958772;29;20464;-88
2021/05/13 08:49:25;;;;;;;14.40;8.80;;;24.80;58.30;;;;;;4958587;29;20444;-88
2021/05/13 08:51:52;;;;;;;7.40;6.80;;;24.80;58.10;;;;;;4958567;29;20448;-88
2021/05/13 08:54:18;;;;;;;8.30;5.30;;;24.80;58.10;;;;;;4958395;29;20493;-89
2021/05/13 08:56:47;;;;;;;7.50;6.80;;;24.80;58.30;;;;;;4958416;29;20483;-88
2021/05/13 08:59:15;;;;;;;7.23;6.03;;;24.90;58.40;;;;;;4958505;29;20472;-89
2021/05/13 09:01:59;;;;;;;5.67;3.43;;;24.90;58.00;;;;;;4958524;29;20496;-88
2021/05/13 09:04:38;;;;;;;4.27;3.63;;;24.90;58.00;;;;;;4958464;29;20437;-88
2021/05/13 09:07:14;;;;;;;3.87;3.50;;;25.00;58.70;;;;;;4958345;29;20440;-89
2021/05/13 09:09:59;;;;;;;3.03;2.73;;;25.00;58.10;;;;;;4958298;29;20448;-88
2021/05/13 09:12:27;;;;;;;4.90;3.07;;;25.00;58.70;;;;;;4958105;29;20450;-88
2021/05/13 09:14:59;;;;;;;2.90;2.60;;;25.00;58.20;;;;;;4958277;29;20449;-89
2021/05/13 09:17:26;;;;;;;3.20;2.77;;;25.10;58.20;;;;;;4958056;29;20471;-89
2021/05/13 09:19:54;;;;;;;3.97;2.70;;;25.10;58.20;;;;;;4957765;29;20453;-89
2021/05/13 09:22:23;;;;;;;3.50;3.20;;;25.10;58.20;;;;;;4957716;29;20507;-89
2021/05/13 09:24:52;;;;;;;2.43;2.33;;;25.10;58.20;;;;;;4957893;29;20507;-88
2021/05/13 09:27:21;;;;;;;6.70;3.13;;;25.10;58.20;;;;;;4957940;29;20540;-89
2021/05/13 09:30:00;;;;;;;2.67;2.30;;;25.10;58.20;;;;;;4957907;29;20449;-89
2021/05/13 09:32:26;;;;;;;3.10;2.73;;;25.20;58.30;;;;;;4957920;29;20441;-88
2021/05/13 09:34:54;;;;;;;2.83;2.40;;;25.20;58.30;;;;;;4957376;28;20446;-89
2021/05/13 09:37:20;;;;;;;3.00;2.80;;;25.20;58.30;;;;;;4957347;29;20511;-89
2021/05/13 09:39:48;;;;;;;3.13;2.80;;;25.40;58.40;;;;;;4957598;29;20443;-88
2021/05/13 09:42:17;;;;;;;2.77;2.57;;;25.20;58.30;;;;;;4957443;29;20497;-89
2021/05/13 09:44:43;;;;;;;6.37;5.77;;;25.20;58.30;;;;;;4957519;29;20463;-86
2021/05/13 09:47:19;;;;;;;5.03;4.20;;;25.30;58.00;;;;;;4957289;29;20465;-84
2021/05/13 09:49:58;;;;;;;4.63;3.70;;;25.30;57.80;;;;;;4957435;29;20476;-84
2021/05/13 09:52:46;;;;;;;4.13;3.03;;;25.20;58.00;;;;;;4957427;29;20800;-84
2021/05/13 09:55:21;;;;;;;3.30;3.00;;;25.20;58.20;;;;;;4957284;29;20447;-84
2021/05/13 09:57:50;;;;;;;2.50;2.30;;;25.20;58.20;;;;;;4957015;29;20473;-87
2021/05/13 10:00:33;;;;;;;2.93;2.67;;;25.20;58.20;;;;;;4957336;29;20507;-84
2021/05/13 10:03:00;;;;;;;2.80;2.60;;;25.20;58.20;;;;;;4955065;29;20465;-84
2021/05/13 10:05:27;;;;;;;6.60;3.20;;;25.20;58.20;;;;;;4956875;29;20477;-84
2021/05/13 10:07:54;;;;;;;3.83;2.77;;;25.30;58.30;;;;;;4956889;29;20995;-84
2021/05/13 10:10:20;;;;;;;3.83;2.40;;;25.30;58.10;;;;;;4956803;29;20947;-87
2021/05/13 10:12:48;;;;;;;2.23;2.00;;;25.30;58.00;;;;;;4957257;29;20524;-87
2021/05/13 10:15:15;;;;;;;3.63;3.33;;;25.20;57.90;;;;;;4957085;29;20528;-87
2021/05/13 10:17:44;;;;;;;4.50;4.10;;;25.30;57.90;;;;;;4957496;29;20476;-87
2021/05/13 10:20:13;;;;;;;2.30;2.10;;;25.30;57.50;;;;;;4957307;29;20495;-84
2021/05/13 10:22:43;;;;;;;7.03;2.50;;;25.30;57.50;;;;;;4955798;29;20491;-85
2021/05/13 10:25:24;;;;;;;2.70;2.50;;;25.30;57.80;;;;;;4956211;29;20452;-84
2021/05/13 10:27:55;;;;;;;4.80;2.37;;;25.20;57.70;;;;;;4956457;29;20454;-84
2021/05/13 10:30:27;;;;;;;5.43;3.10;;;25.20;57.70;;;;;;4956719;29;20476;-85
2021/05/13 10:33:18;;;;;;;4.03;1.93;;;25.20;57.70;;;;;;4956550;29;20452;-88
2021/05/13 10:36:09;;;;;;;6.60;2.50;;;25.20;57.70;;;;;;4952083;29;20529;-88
2021/05/13 10:38:41;;;;;;;2.00;1.80;;;25.20;57.60;;;;;;4956986;29;20507;-88
